< < Back
Terminal Aerodrome Forecast


Current Version              Previous Versions:   1  2  3  4  5  6  7  8  9  

Terminal Aerodrome Forecast

900
FTUS44 KOHX 261003 AAB
TAFCSV
TAF AMD
KCSV 261003Z 2610/2706 00000KT 6SM BR SKC
     FM261100 00000KT 3SM BR SKC
     FM261300 21005KT P6SM SCT050=



Latest METAR

606
SAUS70 KWBC 261700 RRG
MTRCSV
METAR KCSV 261653Z AUTO 19003KT 10SM BKN039 BKN050 29/21 A3022 RMK AO2
LTG DSNT N SLP209 T02890206


USA.gov is the U.S. government's official web portal to all federal, state and local government web resources and services.